Terminal Aerodrome Forecast
Issued by NWS

Home | Current Version | Previous Version | Text Only | Print | Product List | Glossary On
Versions: 1 2 3 4 5 6 7 8 9 10 11 12
513
FTPA31 PHFO 201728
TAFHJH
TAF
PHJH 201728Z 2018/2118 04011G16KT P6SM VCSH FEW030 BKN060
     FM201900 05015G25KT P6SM FEW030 SCT060
     FM202100 05018G28KT P6SM FEW030 SCT060
     FM210500 05011G18KT P6SM FEW030 SCT060
      AMD NOT SKED 2104/2116=

USA.gov is the U.S. government's official web portal to all federal, state and local government web resources and services.